Time;durP1;ratioP1;P1;durP2;ratioP2;P2;SDS_P1;SDS_P2;PMS_P1;PMS_P2;Temp;Humidity;BMP_temperature;BMP_pressure;BME280_temperature;BME280_humidity;BME280_pressure;Samples;Min_cycle;Max_cycle;Signal;HPM_P1;HPM_P2
2022/05/29 00:00:56;;;;;;;36.13;32.88;;;;;;;20.12;100.00;100585.56;5028561;28;20557;-83
2022/05/29 00:03:23;;;;;;;35.08;32.00;;;;;;;19.97;100.00;100590.97;5029172;28;20103;-81
2022/05/29 00:05:51;;;;;;;34.92;31.45;;;;;;;19.73;100.00;100597.97;5029722;28;20068;-80
2022/05/29 00:08:26;;;;;;;36.95;33.88;;;;;;;19.82;100.00;100601.75;5028184;28;20038;-82
2022/05/29 00:10:53;;;;;;;37.78;34.28;;;;;;;19.81;100.00;100605.50;5022706;28;20053;-82
2022/05/29 00:13:20;;;;;;;35.20;32.30;;;;;;;19.80;100.00;100602.03;5024281;28;20056;-82
2022/05/29 00:15:49;;;;;;;33.90;30.85;;;;;;;19.89;100.00;100584.22;5028414;28;20573;-82
2022/05/29 00:18:17;;;;;;;34.35;31.08;;;;;;;20.00;100.00;100584.19;5035092;28;20061;-81
2022/05/29 00:20:46;;;;;;;36.05;32.63;;;;;;;19.46;100.00;100585.56;5035431;28;20099;-80
2022/05/29 00:23:13;;;;;;;37.88;34.45;;;;;;;19.41;100.00;100582.84;5034591;28;20079;-83
2022/05/29 00:25:41;;;;;;;37.08;33.88;;;;;;;19.34;100.00;100574.22;5032179;28;20062;-82
2022/05/29 00:28:08;;;;;;;39.15;35.95;;;;;;;19.48;100.00;100569.09;5025781;28;20085;-80
2022/05/29 00:30:35;;;;;;;37.13;33.83;;;;;;;19.30;100.00;100557.78;5025746;28;20188;-82
2022/05/29 00:33:05;;;;;;;39.30;35.88;;;;;;;19.31;100.00;100551.34;5035278;28;20057;-80
2022/05/29 00:35:32;;;;;;;35.75;32.53;;;;;;;19.57;100.00;100544.06;5033797;28;20053;-80
2022/05/29 00:38:00;;;;;;;35.20;32.38;;;;;;;19.51;100.00;100534.34;5035909;28;20399;-80
2022/05/29 00:40:35;;;;;;;37.63;34.30;;;;;;;19.59;100.00;100524.94;5025910;28;20486;-83
2022/05/29 00:43:02;;;;;;;33.83;31.05;;;;;;;19.62;100.00;100521.72;5030889;28;20049;-80
2022/05/29 00:45:32;;;;;;;33.63;30.70;;;;;;;19.51;100.00;100528.16;5034547;28;20118;-82
2022/05/29 00:48:00;;;;;;;36.38;33.08;;;;;;;19.56;100.00;100544.34;5033194;28;20060;-80
2022/05/29 00:50:29;;;;;;;34.10;31.00;;;;;;;19.19;100.00;100573.13;5026584;28;20132;-80
2022/05/29 00:52:56;;;;;;;35.47;31.98;;;;;;;19.22;100.00;100577.97;5035186;28;20122;-81
2022/05/29 00:55:25;;;;;;;34.47;31.23;;;;;;;19.58;100.00;100558.34;5031017;28;20092;-83
2022/05/29 00:57:54;;;;;;;38.92;35.42;;;;;;;19.71;100.00;100548.94;5032585;28;20053;-82
2022/05/29 01:00:25;;;;;;;32.83;29.70;;;;;;;19.49;100.00;100554.59;5031536;28;20075;-82
2022/05/29 01:02:53;;;;;;;36.60;33.50;;;;;;;19.50;100.00;100553.50;5033733;28;20061;-81
2022/05/29 01:05:22;;;;;;;32.58;29.40;;;;;;;18.90;100.00;100561.22;5031454;28;20053;-82
2022/05/29 01:07:54;;;;;;;33.03;30.20;;;;;;;18.80;100.00;100564.69;5029903;28;20059;-83
2022/05/29 01:10:26;;;;;;;34.63;31.33;;;;;;;19.23;100.00;100549.97;5033698;28;20065;-83
2022/05/29 01:12:59;;;;;;;35.20;31.90;;;;;;;19.44;100.00;100539.22;5024911;28;20046;-81
2022/05/29 01:15:33;;;;;;;33.88;31.02;;;;;;;19.45;100.00;100525.50;5023216;28;20123;-82
2022/05/29 01:18:11;;;;;;;36.15;33.08;;;;;;;19.63;100.00;100524.13;5025811;28;20112;-82
2022/05/29 01:20:51;;;;;;;35.35;32.13;;;;;;;19.63;100.00;100524.13;5033931;28;20410;-82
2022/05/29 01:23:51;;;;;;;35.80;32.90;;;;;;;19.49;100.00;100519.56;5033615;28;20057;-80
2022/05/29 01:26:43;;;;;;;40.85;37.47;;;;;;;18.95;100.00;100528.94;5026111;28;20073;-80
2022/05/29 01:29:17;;;;;;;35.15;31.73;;;;;;;18.91;100.00;100546.66;5033276;28;20049;-82
2022/05/29 01:31:50;;;;;;;35.45;32.05;;;;;;;19.01;100.00;100567.44;5033699;28;20053;-80
2022/05/29 01:34:26;;;;;;;42.22;38.17;;;;;;;18.97;100.00;100585.97;5030686;28;20057;-84
2022/05/29 01:37:06;;;;;;;37.80;34.25;;;;;;;18.91;100.00;100597.78;5030058;28;20111;-80
2022/05/29 01:39:37;;;;;;;35.60;32.00;;;;;;;19.10;100.00;100603.53;5032831;28;20068;-80
2022/05/29 01:42:08;;;;;;;37.42;34.05;;;;;;;19.15;100.00;100598.97;5033649;28;20490;-82
2022/05/29 01:44:42;;;;;;;36.83;33.35;;;;;;;19.54;100.00;100611.13;5031287;28;20129;-81
2022/05/29 01:47:15;;;;;;;36.75;33.65;;;;;;;19.30;100.00;100600.84;5021880;28;20103;-82
2022/05/29 01:49:47;;;;;;;40.45;37.05;;;;;;;19.12;100.00;100598.66;5030886;28;20049;-82
2022/05/29 01:52:18;;;;;;;36.83;33.50;;;;;;;19.51;100.00;100604.38;5032555;28;20057;-83
2022/05/29 01:54:51;;;;;;;37.00;33.97;;;;;;;19.66;100.00;100607.13;5030965;28;20364;-83
2022/05/29 01:57:22;;;;;;;35.10;31.98;;;;;;;19.88;100.00;100614.97;5033149;28;20107;-83
2022/05/29 01:59:57;;;;;;;37.83;34.67;;;;;;;20.70;100.00;100605.91;5032595;28;20084;-82
2022/05/29 02:02:30;;;;;;;39.35;36.05;;;;;;;19.95;100.00;100608.47;5136069;23;20041;-82
2022/05/29 02:05:02;;;;;;;37.67;34.35;;;;;;;20.74;100.00;100602.38;5032492;28;20137;-82
2022/05/29 02:07:49;;;;;;;36.05;33.20;;;;;;;20.42;100.00;100604.63;5030412;28;20049;-81
2022/05/29 02:10:25;;;;;;;35.20;32.03;;;;;;;19.82;100.00;100615.25;5030395;28;20543;-84
2022/05/29 02:12:58;;;;;;;35.28;32.33;;;;;;;20.07;100.00;100603.63;5031377;28;20060;-83
2022/05/29 02:15:30;;;;;;;;;;;;;;;19.83;100.00;100606.06;5022892;28;20115;-82
2022/05/29 02:18:03;;;;;;;33.22;30.17;;;;;;;19.67;100.00;100603.38;5028677;28;19929;-84
2022/05/29 02:20:38;;;;;;;32.58;29.52;;;;;;;19.65;100.00;100602.81;5021576;28;20053;-85
2022/05/29 02:23:17;;;;;;;32.30;29.08;;;;;;;19.75;100.00;100603.91;5014872;28;20051;-86
2022/05/29 02:25:46;;;;;;;34.08;31.00;;;;;;;19.76;100.00;100609.03;5032893;28;20053;-84
2022/05/29 02:28:17;;;;;;;32.03;29.20;;;;;;;19.75;100.00;100610.09;5020239;28;20057;-84
2022/05/29 02:30:53;;;;;;;34.30;31.02;;;;;;;19.63;100.00;100610.31;5031483;28;20049;-83
2022/05/29 02:33:25;;;;;;;37.75;34.25;;;;;;;19.60;100.00;100615.44;5032706;28;20053;-82
2022/05/29 02:36:19;;;;;;;37.70;34.23;;;;;;;19.66;100.00;100622.47;5024520;28;20474;-84
2022/05/29 02:39:00;;;;;;;35.25;32.05;;;;;;;19.50;100.00;100634.28;5017775;28;20050;-84
2022/05/29 02:41:44;;;;;;;37.03;33.72;;;;;;;19.72;100.00;100642.97;5021334;28;20053;-81
2022/05/29 02:44:23;;;;;;;31.98;29.08;;;;;;;19.78;100.00;100643.78;5030543;28;20045;-82
2022/05/29 02:46:58;;;;;;;31.42;28.40;;;;;;;19.56;100.00;100635.91;5032248;28;20175;-83
2022/05/29 02:49:31;;;;;;;30.83;27.95;;;;;;;19.68;100.00;100623.84;5026944;28;20122;-82
2022/05/29 02:52:05;;;;;;;31.20;28.10;;;;;;;19.60;100.00;100610.84;5029091;28;20445;-83
2022/05/29 02:54:33;;;;;;;31.75;28.95;;;;;;;19.65;100.00;100591.25;5032273;28;20049;-84
2022/05/29 02:57:02;;;;;;;30.10;27.45;;;;;;;19.63;100.00;100585.28;5022843;28;20056;-85
2022/05/29 02:59:32;;;;;;;31.30;28.20;;;;;;;19.67;100.00;100586.41;5025177;28;20058;-84
2022/05/29 03:02:10;;;;;;;32.25;29.48;;;;;;;19.69;100.00;100586.91;5028826;28;20489;-81
2022/05/29 03:04:48;;;;;;;29.95;27.25;;;;;;;19.36;100.00;100597.09;5019217;28;20048;-82
2022/05/29 03:07:26;;;;;;;30.90;27.95;;;;;;;18.86;100.00;100616.63;5031877;28;20041;-81
2022/05/29 03:10:03;;;;;;;31.10;28.25;;;;;;;18.87;100.00;100629.00;5024090;28;20459;-84
2022/05/29 03:12:41;;;;;;;29.83;27.08;;;;;;;18.94;100.00;100633.09;5032221;28;20045;-83
2022/05/29 03:15:25;;;;;;;31.00;27.77;;;;;;;18.77;100.00;100641.34;5031870;28;20488;-81
2022/05/29 03:18:05;;;;;;;30.58;27.85;;;;;;;18.82;100.00;100654.03;5027945;28;20132;-85
2022/05/29 03:20:41;;;;;;;29.90;27.10;;;;;;;18.78;100.00;100658.28;5026880;28;20049;-83
2022/05/29 03:23:22;;;;;;;31.33;28.40;;;;;;;19.26;100.00;100664.41;5035765;28;20116;-83
2022/05/29 03:25:57;;;;;;;30.63;27.73;;;;;;;19.58;100.00;100653.44;5035926;28;20060;-82
2022/05/29 03:28:30;;;;;;;31.13;28.25;;;;;;;19.53;100.00;100645.34;5035733;28;20049;-83
2022/05/29 03:31:00;;;;;;;30.65;27.85;;;;;;;19.70;100.00;100644.31;5032994;28;20054;-84
2022/05/29 03:33:28;;;;;;;29.80;27.20;;;;;;;19.62;100.00;100646.44;5036390;28;20049;-83
2022/05/29 03:36:08;;;;;;;30.13;27.35;;;;;;;19.59;100.00;100646.97;5035187;28;20107;-82
2022/05/29 03:38:35;;;;;;;28.67;26.35;;;;;;;19.71;100.00;100654.81;5028479;28;20168;-83
2022/05/29 03:41:09;;;;;;;30.15;27.38;;;;;;;19.91;100.00;100656.75;5033582;28;20053;-83
2022/05/29 03:43:37;;;;;;;29.60;27.02;;;;;;;19.99;100.00;100653.47;5029757;28;20038;-85
2022/05/29 03:46:04;;;;;;;29.48;26.80;;;;;;;19.94;100.00;100649.97;5029391;28;20120;-83
2022/05/29 03:48:34;;;;;;;30.67;27.63;;;;;;;20.07;100.00;100647.56;5028744;28;20100;-84
2022/05/29 03:51:04;;;;;;;29.90;27.30;;;;;;;20.27;100.00;100633.25;5028838;28;20045;-83
2022/05/29 03:53:31;;;;;;;29.38;26.63;;;;;;;20.10;100.00;100651.59;5027050;28;20053;-83
2022/05/29 03:55:58;;;;;;;29.65;27.02;;;;;;;19.81;100.00;100648.63;5027371;28;20378;-84
2022/05/29 03:58:25;;;;;;;30.83;28.02;;;;;;;20.13;100.00;100653.75;5029568;28;20085;-83
2022/05/29 04:00:52;;;;;;;30.45;27.75;;;;;;;19.93;100.00;100664.53;5025376;28;20109;-84
2022/05/29 04:03:19;;;;;;;31.25;28.63;;;;;;;20.21;100.00;100658.63;5027568;28;20107;-84
2022/05/29 04:05:47;;;;;;;31.33;28.38;;;;;;;20.44;100.00;100646.41;5025005;28;20065;-84
2022/05/29 04:13:45;;;;;;;31.30;28.20;;;;;;;20.30;100.00;100607.59;5029354;28;20060;-82
2022/05/29 04:16:12;;;;;;;30.17;27.40;;;;;;;20.14;100.00;100614.91;5027935;28;20111;-85
2022/05/29 04:18:40;;;;;;;29.27;26.67;;;;;;;20.30;100.00;100621.91;5022535;28;20056;-82
2022/05/29 04:21:08;;;;;;;31.58;28.70;;;;;;;20.46;100.00;100648.84;5024662;28;20461;-83
2022/05/29 04:23:35;;;;;;;31.30;28.33;;;;;;;20.56;100.00;100652.34;5026486;28;20057;-84
2022/05/29 04:26:02;;;;;;;31.52;28.70;;;;;;;20.77;100.00;100666.59;5029708;28;20060;-84
2022/05/29 04:28:28;;;;;;;29.58;26.98;;;;;;;20.81;100.00;100669.53;5025186;28;20115;-83
2022/05/29 04:30:55;;;;;;;31.83;29.17;;;;;;;20.67;100.00;100669.34;5028679;28;20037;-83
2022/05/29 04:33:22;;;;;;;31.20;28.17;;;;;;;20.67;100.00;100680.13;5024771;28;20443;-85
2022/05/29 04:35:52;;;;;;;30.55;27.77;;;;;;;20.95;100.00;100681.38;5025030;28;20124;-83
2022/05/29 04:38:23;;;;;;;29.73;27.23;;;;;;;20.71;100.00;100670.41;5035983;28;20468;-83
2022/05/29 04:40:52;;;;;;;29.38;26.80;;;;;;;20.75;100.00;100649.84;5027446;28;20109;-82
2022/05/29 04:43:21;;;;;;;30.73;27.90;;;;;;;21.14;100.00;100645.66;5034410;28;20045;-84
2022/05/29 04:45:55;;;;;;;30.00;27.65;;;;;;;20.88;100.00;100632.28;5025725;28;20546;-83
2022/05/29 04:48:24;;;;;;;30.35;27.67;;;;;;;20.70;100.00;100614.00;5025305;28;20053;-85
2022/05/29 04:50:57;;;;;;;30.80;28.30;;;;;;;20.82;100.00;100619.91;5022199;28;20053;-84
2022/05/29 04:53:26;;;;;;;30.83;28.20;;;;;;;20.99;100.00;100643.84;5034538;28;20045;-84
2022/05/29 04:55:56;;;;;;;28.25;26.10;;;;;;;20.60;100.00;100674.19;5025529;28;20124;-83
2022/05/29 04:58:24;;;;;;;27.80;25.38;;;;;;;20.40;100.00;100677.72;5032713;28;20049;-85
2022/05/29 05:00:56;;;;;;;28.58;26.30;;;;;;;20.25;100.00;100683.94;5025254;28;20053;-85
2022/05/29 05:03:26;;;;;;;27.80;25.63;;;;;;;20.12;100.00;100688.00;5025442;28;20128;-83
2022/05/29 05:05:54;;;;;;;28.17;26.30;;;;;;;20.38;100.00;100687.16;5016855;28;20100;-82
2022/05/29 05:08:22;;;;;;;28.88;26.67;;;;;;;20.17;100.00;100672.88;5030156;28;20119;-85
2022/05/29 05:10:53;;;;;;;28.05;25.75;;;;;;;20.22;100.00;100643.22;5020812;28;20042;-84
2022/05/29 05:13:27;;;;;;;27.30;25.40;;;;;;;20.41;100.00;100621.88;5035146;28;20111;-86
2022/05/29 05:16:01;;;;;;;27.10;25.00;;;;;;;20.27;100.00;100587.41;5034498;28;20056;-85
2022/05/29 05:18:30;;;;;;;27.15;25.13;;;;;;;20.04;100.00;100602.28;5031101;28;20115;-85
2022/05/29 05:21:05;;;;;;;26.92;24.58;;;;;;;20.40;100.00;100596.00;5018380;28;20049;-87
2022/05/29 05:23:33;;;;;;;27.05;25.13;;;;;;;20.62;100.00;100601.88;5027454;28;20100;-83
2022/05/29 05:26:02;;;;;;;26.90;24.88;;;;;;;20.88;100.00;100601.78;5019199;28;20061;-83
2022/05/29 05:28:29;;;;;;;26.67;24.67;;;;;;;20.87;100.00;100606.38;5030210;28;20053;-83
2022/05/29 05:30:57;;;;;;;26.23;24.33;;;;;;;20.64;100.00;100615.13;5028052;28;20052;-85
2022/05/29 05:33:25;;;;;;;27.35;25.25;;;;;;;20.66;100.00;100604.84;5034516;28;20107;-85
2022/05/29 05:35:54;;;;;;;27.42;25.63;;;;;;;20.48;100.00;100607.00;5033679;28;20552;-84
2022/05/29 05:38:21;;;;;;;25.92;24.02;;;;;;;20.95;100.00;100608.50;5014908;28;20120;-84
2022/05/29 05:40:49;;;;;;;26.23;24.27;;;;;;;20.82;100.00;100625.31;5034277;28;20057;-83
2022/05/29 05:43:19;;;;;;;26.48;24.38;;;;;;;20.66;100.00;100626.41;5029897;28;20046;-84
2022/05/29 05:45:47;;;;;;;26.58;24.38;;;;;;;21.16;100.00;100620.00;5018613;28;20054;-84
2022/05/29 05:48:14;;;;;;;25.38;23.48;;;;;;;21.06;100.00;100617.38;5030156;28;20049;-81
2022/05/29 05:50:41;;;;;;;26.80;25.02;;;;;;;21.06;100.00;100620.06;5033886;28;20052;-84
2022/05/29 05:53:08;;;;;;;26.58;24.45;;;;;;;20.92;100.00;100614.44;5031692;28;20057;-82
2022/05/29 05:55:39;;;;;;;27.75;25.38;;;;;;;21.13;100.00;100604.34;5032736;28;20057;-82
2022/05/29 05:58:06;;;;;;;26.52;24.73;;;;;;;21.70;100.00;100602.91;5031818;28;20060;-82
2022/05/29 06:00:34;;;;;;;27.30;25.48;;;;;;;21.20;100.00;100610.25;5023370;28;20053;-83
2022/05/29 06:03:04;;;;;;;27.10;25.00;;;;;;;21.19;100.00;100594.31;5034472;28;20103;-84
2022/05/29 06:05:32;;;;;;;28.33;26.15;;;;;;;20.84;100.00;100593.41;5021470;28;20045;-84
2022/05/29 06:07:59;;;;;;;29.33;27.20;;;;;;;21.07;100.00;100581.16;5014738;28;20115;-84
2022/05/29 06:10:27;;;;;;;27.27;25.42;;;;;;;21.09;100.00;100576.31;5014674;28;20544;-86
2022/05/29 06:13:01;;;;;;;26.77;24.80;;;;;;;21.28;100.00;100562.94;5027203;28;20470;-86
2022/05/29 06:15:29;;;;;;;26.13;24.42;;;;;;;21.72;100.00;100553.97;5027660;28;20109;-83
2022/05/29 06:18:04;;;;;;;26.33;24.63;;;;;;;21.95;100.00;100552.41;5028533;28;20045;-86
2022/05/29 06:20:38;;;;;;;27.90;25.95;;;;;;;21.71;100.00;100550.44;5022517;28;20050;-86
2022/05/29 06:23:13;;;;;;;28.25;25.88;;;;;;;21.61;100.00;100545.16;5017926;28;20053;-86
2022/05/29 06:25:42;;;;;;;27.77;25.88;;;;;;;21.73;100.00;100544.78;5014666;28;20116;-85
2022/05/29 06:28:11;;;;;;;27.70;25.80;;;;;;;22.23;100.00;100545.38;5029837;28;20045;-83
2022/05/29 06:30:40;;;;;;;29.40;26.77;;;;;;;21.47;100.00;100550.38;5021536;28;20110;-86
2022/05/29 06:33:09;;;;;;;29.25;27.15;;;;;;;22.18;100.00;100553.56;5021501;28;20398;-83
2022/05/29 06:35:36;;;;;;;29.70;27.70;;;;;;;22.04;100.00;100550.69;5025354;28;20057;-83
2022/05/29 06:38:03;;;;;;;27.65;25.73;;;;;;;22.45;100.00;100541.31;5031972;28;20049;-83
2022/05/29 06:40:52;;;;;;;28.48;26.40;;;;;;;22.24;100.00;100546.16;5032681;28;20053;-84
2022/05/29 06:43:31;;;;;;;30.00;27.60;;;;;;;21.77;100.00;100547.72;5026775;28;20059;-86
2022/05/29 06:45:58;;;;;;;29.25;27.15;;;;;;;22.25;100.00;100539.69;5028644;28;20118;-83
2022/05/29 06:48:32;;;;;;;28.27;26.42;;;;;;;22.32;100.00;100529.31;5033099;28;20502;-86
2022/05/29 06:51:03;;;;;;;30.10;28.05;;;;;;;21.49;100.00;100537.41;5032866;28;20049;-83
2022/05/29 06:53:31;;;;;;;29.40;27.20;;;;;;;21.79;100.00;100524.72;5027621;28;20056;-84
2022/05/29 06:55:58;;;;;;;30.58;28.17;;;;;;;21.35;100.00;100527.50;5027577;28;20049;-86
2022/05/29 06:58:25;;;;;;;30.70;28.38;;;;;;;21.65;100.00;100527.28;5028668;28;20112;-83
2022/05/29 07:09:07;;;;;;;29.33;27.13;;;;;;;22.29;100.00;100573.16;5030954;28;20057;-83
2022/05/29 07:11:43;;;;;;;30.98;28.70;;;;;;;21.55;100.00;100573.31;5033587;28;20111;-85
2022/05/29 07:14:10;;;;;;;32.58;29.95;;;;;;;21.77;100.00;100585.56;5043008;28;20111;-83
2022/05/29 07:16:38;;;;;;;29.88;27.48;;;;;;;21.85;100.00;100574.13;5032534;28;20049;-84
2022/05/29 07:19:07;;;;;;;29.80;27.63;;;;;;;21.94;100.00;100588.66;5023948;28;20056;-83
2022/05/29 07:21:38;;;;;;;30.17;27.88;;;;;;;21.56;100.00;100601.13;5035536;28;20529;-84
2022/05/29 07:24:09;;;;;;;52.50;48.05;;;;;;;21.67;100.00;100608.06;5035682;28;20041;-82
2022/05/29 07:26:36;;;;;;;55.70;50.65;;;;;;;22.23;100.00;100599.47;5037047;28;20076;-81
2022/05/29 07:29:04;;;;;;;54.45;49.85;;;;;;;22.15;100.00;100589.25;5029780;28;20510;-86
2022/05/29 07:31:31;;;;;;;55.40;50.60;;;;;;;21.57;100.00;100573.00;5029819;28;20066;-81
2022/05/29 07:33:58;;;;;;;55.85;51.15;;;;;;;21.56;100.00;100566.81;5036819;28;20065;-81
2022/05/29 07:36:28;;;;;;;56.47;51.80;;;;;;;21.78;100.00;100560.13;5036918;28;20103;-84
2022/05/29 07:38:55;;;;;;;55.72;51.20;;;;;;;21.48;100.00;100579.03;5025272;28;20049;-83
2022/05/29 07:44:06;;;;;;;56.70;51.95;;;;;;;22.20;100.00;100573.00;5032765;28;20052;-83
2022/05/29 07:46:33;;;;;;;55.88;50.85;;;;;;;22.70;100.00;100567.28;5034647;28;20049;-81
2022/05/29 07:49:01;;;;;;;56.53;51.72;;;;;;;22.17;100.00;100571.66;5027719;28;20049;-83
2022/05/29 07:54:06;;;;;;;57.05;51.80;;;;;;;22.25;100.00;100591.88;5030449;28;20053;-90
2022/05/29 07:56:40;;;;;;;53.58;49.38;;;;;;;21.64;100.00;100604.03;5038738;28;20055;-90
2022/05/29 07:59:07;;;;;;;54.67;49.70;;;;;;;22.32;100.00;100578.81;5033306;28;20054;-93
2022/05/29 08:01:34;;;;;;;54.10;49.05;;;;;;;22.74;100.00;100566.41;5029753;28;20478;-93
2022/05/29 08:04:01;;;;;;;55.67;50.25;;;;;;;22.17;100.00;100562.75;5029437;28;20092;-90
2022/05/29 08:06:31;;;;;;;56.35;50.95;;;;;;;22.11;100.00;100564.66;5029371;28;20204;-92
2022/05/29 08:08:58;;;;;;;55.38;50.40;;;;;;;21.66;100.00;100563.19;5032353;28;20053;-91
2022/05/29 08:11:27;;;;;;;56.17;51.05;;;;;;;22.22;100.00;100581.63;5025684;28;20514;-92
2022/05/29 08:13:55;;;;;;;55.45;50.42;;;;;;;22.24;100.00;100584.03;5039098;28;20057;-92
2022/05/29 08:16:29;;;;;;;57.13;51.70;;;;;;;22.33;100.00;100583.13;5033565;28;20054;-92
2022/05/29 08:18:56;;;;;;;60.90;55.33;;;;;;;21.81;100.00;100589.28;5044086;28;20049;-92
2022/05/29 08:21:25;;;;;;;58.53;53.17;;;;;;;22.35;100.00;100578.22;5032558;28;20049;-92
2022/05/29 08:32:08;;;;;;;62.05;56.20;;;;;;;22.23;100.00;100564.28;5028904;28;20044;-92
2022/05/29 08:34:35;;;;;;;63.58;57.58;;;;;;;21.87;100.00;100585.44;5034915;28;20128;-94
2022/05/29 08:39:43;;;;;;;63.00;57.15;;;;;;;21.43;100.00;100584.47;5031218;28;20507;-91
2022/05/29 08:42:18;;;;;;;65.18;58.95;;;;;;;21.67;100.00;100610.78;5026485;28;20572;-92
2022/05/29 08:44:48;;;;;;;63.80;58.25;;;;;;;21.52;100.00;100636.00;5020089;28;20041;-92
2022/05/29 08:47:15;;;;;;;63.58;57.90;;;;;;;22.10;100.00;100649.59;5031587;28;20422;-92
2022/05/29 08:49:46;;;;;;;65.22;59.50;;;;;;;21.77;100.00;100639.63;5030343;28;20046;-92
2022/05/29 08:52:33;;;;;;;63.63;58.33;;;;;;;21.73;100.00;100609.66;5033355;28;20045;-91
2022/05/29 08:55:06;;;;;;;67.78;61.20;;;;;;;21.34;100.00;100588.81;5030502;28;20068;-91
2022/05/29 08:57:54;;;;;;;68.90;62.90;;;;;;;21.65;100.00;100577.81;5026683;28;20054;-92
2022/05/29 09:00:38;;;;;;;65.25;59.83;;;;;;;22.03;100.00;100568.00;5018462;28;20045;-93
2022/05/29 09:03:22;;;;;;;64.75;58.90;;;;;;;21.47;100.00;100590.13;5033598;28;20053;-93
2022/05/29 09:05:57;;;;;;;68.32;62.03;;;;;;;21.33;100.00;100600.72;5028226;28;20111;-92
2022/05/29 09:08:28;;;;;;;63.78;58.13;;;;;;;21.10;100.00;100637.31;5031182;28;20141;-92
2022/05/29 09:11:01;;;;;;;63.30;58.15;;;;;;;21.89;100.00;100653.56;5024242;28;20129;-94
2022/05/29 09:13:37;;;;;;;64.57;58.97;;;;;;;21.38;100.00;100664.72;5029097;28;20045;-93
2022/05/29 09:16:25;;;;;;;64.57;58.97;;;;;;;21.47;100.00;100663.88;5027355;28;20057;-93
2022/05/29 09:22:01;;;;;;;65.63;59.95;;;;;;;21.78;100.00;100660.13;5031197;28;20049;-91
2022/05/29 09:25:02;;;;;;;64.93;59.47;;;;;;;22.17;100.00;100660.91;5038312;28;20069;-93
2022/05/29 09:27:30;;;;;;;66.65;60.92;;;;;;;21.98;100.00;100656.47;5035609;28;20037;-93
2022/05/29 09:29:58;;;;;;;65.95;60.25;;;;;;;21.74;100.00;100646.38;5027618;28;20152;-93
2022/05/29 09:32:31;;;;;;;68.63;62.33;;;;;;;21.45;100.00;100649.84;5025973;28;20042;-92
2022/05/29 09:40:41;;;;;;;64.28;58.28;;;;;;;22.62;100.00;100625.56;5029629;28;20049;-89
2022/05/29 09:43:17;;;;;;;41.17;37.78;;;;;;;22.25;100.00;100610.00;5029646;28;20412;-93
2022/05/29 09:45:45;;;;;;;38.10;34.80;;;;;;;22.98;100.00;100609.72;5025416;28;20046;-93
2022/05/29 09:51:20;;;;;;;38.25;34.90;;;;;;;22.89;100.00;100600.59;5024506;28;20056;-92
2022/05/29 09:53:56;;;;;;;38.85;35.50;;;;;;;21.84;100.00;100613.06;5028493;28;20281;-92
2022/05/29 09:56:30;;;;;;;36.97;33.75;;;;;;;22.41;100.00;100606.84;5021049;28;20049;-93
2022/05/29 09:59:03;;;;;;;36.90;33.65;;;;;;;22.27;100.00;100600.53;5020902;28;20100;-93
2022/05/29 10:01:34;;;;;;;37.90;34.85;;;;;;;22.60;100.00;100612.34;5031343;28;20038;-92
2022/05/29 10:04:04;;;;;;;37.20;34.03;;;;;;;22.77;100.00;100621.88;5016044;28;20058;-93
2022/05/29 10:06:37;;;;;;;37.35;34.28;;;;;;;23.13;100.00;100614.13;5026432;28;20056;-92
2022/05/29 10:09:19;;;;;;;39.63;36.22;;;;;;;23.02;100.00;100599.88;5024316;28;20046;-93
2022/05/29 10:11:48;;;;;;;36.97;33.80;;;;;;;23.50;100.00;100605.16;5030489;28;20079;-93
2022/05/29 10:14:25;;;;;;;37.03;33.83;;;;;;;23.45;100.00;100599.84;5022858;28;20057;-92
2022/05/29 10:16:56;;;;;;;38.03;35.00;;;;;;;23.29;100.00;100593.00;5028378;28;20030;-93
2022/05/29 10:19:35;;;;;;;35.80;32.45;;;;;;;23.10;100.00;100598.44;5025064;28;20053;-92
2022/05/29 10:22:06;;;;;;;37.03;33.92;;;;;;;22.78;100.00;100593.69;5024888;28;20050;-93
2022/05/29 10:24:37;;;;;;;59.55;54.72;;;;;;;23.08;100.00;100587.09;5025057;28;20129;-92
2022/05/29 10:27:10;;;;;;;62.10;56.80;;;;;;;23.11;100.00;100583.78;5024935;28;20053;-93
2022/05/29 10:29:41;;;;;;;62.53;57.28;;;;;;;23.41;100.00;100577.09;5022821;28;20053;-93
2022/05/29 10:32:27;;;;;;;61.47;56.42;;;;;;;24.21;100.00;100567.09;5024654;28;20137;-93
2022/05/29 10:35:12;;;;;;;60.90;55.63;;;;;;;23.65;100.00;100568.06;5021876;28;20152;-92
2022/05/29 10:37:43;;;;;;;64.05;58.03;;;;;;;23.24;100.00;100555.19;5033279;28;20056;-93
2022/05/29 10:40:23;;;;;;;59.53;54.72;;;;;;;23.87;100.00;100568.25;5025847;28;20057;-92
2022/05/29 10:42:54;;;;;;;60.92;55.45;;;;;;;23.85;100.00;100553.41;5026011;28;20049;-92
2022/05/29 10:45:25;;;;;;;58.08;53.40;;;;;;;23.97;100.00;100549.09;5025809;28;20320;-94
2022/05/29 10:48:29;;;;;;;63.30;58.00;;;;;;;23.45;100.00;100548.34;5021346;28;20045;-92
2022/05/29 10:51:12;;;;;;;61.72;56.42;;;;;;;23.76;100.00;100540.50;5022650;28;20054;-90
2022/05/29 10:54:05;;;;;;;61.78;56.38;;;;;;;23.70;100.00;100532.78;5021746;28;20065;-93
2022/05/29 10:56:56;;;;;;;60.22;54.92;;;;;;;24.13;100.00;100522.47;5023841;28;20049;-92
2022/05/29 11:00:05;;;;;;;58.88;53.80;;;;;;;24.25;100.00;100505.69;5028216;28;20510;-92
2022/05/29 11:05:59;;;;;;;58.25;53.67;;;;;;;24.11;100.00;100494.03;4943941;29;20050;-94
2022/05/29 11:08:40;;;;;;;59.00;54.20;;;;;;;24.61;100.00;100491.41;5014701;28;20052;-92
2022/05/29 11:11:25;;;;;;;54.33;50.25;;;;;;;24.58;100.00;100481.94;5029627;28;20060;-93
2022/05/29 11:14:08;;;;;;;56.22;52.00;;;;;;;24.50;100.00;100479.94;5030357;28;20065;-93
2022/05/29 11:16:52;;;;;;;58.63;53.83;;;;;;;24.65;100.00;100478.81;5019186;28;20427;-92
2022/05/29 11:19:59;;;;;;;62.20;56.25;;;;;;;24.95;100.00;100481.94;5018923;28;20056;-90
2022/05/29 11:22:58;;;;;;;58.80;53.97;;;;;;;24.36;100.00;100474.53;4973567;28;20051;-93
2022/05/29 11:25:42;;;;;;;57.95;52.95;;;;;;;24.73;100.00;100480.00;4958486;28;20058;-90
2022/05/29 11:28:41;;;;;;;58.05;53.08;;;;;;;24.43;100.00;100466.78;4972419;28;20050;-90
2022/05/29 11:34:25;;;;;;;62.65;57.25;;;;;;;24.42;100.00;100457.06;5042447;28;20046;-92
2022/05/29 11:37:10;;;;;;;60.75;55.35;;;;;;;24.48;100.00;100448.78;5036211;28;20564;-92
2022/05/29 11:39:52;;;;;;;61.22;55.72;;;;;;;24.62;100.00;100439.50;5032637;28;20473;-91
2022/05/29 11:42:27;;;;;;;56.53;51.70;;;;;;;24.10;100.00;100430.84;5026947;28;20699;-92
2022/05/29 11:45:03;;;;;;;59.38;54.58;;;;;;;23.69;100.00;100431.66;5042248;28;20522;-92
2022/05/29 11:53:29;;;;;;;62.47;56.95;;;;;;;23.67;100.00;100430.31;5034671;28;20541;-91
2022/05/29 11:56:15;;;;;;;61.22;56.13;;;;;;;24.46;100.00;100416.53;5028468;28;20057;-93
2022/05/29 11:58:47;;;;;;;59.33;53.85;;;;;;;24.48;100.00;100422.47;5034039;28;20115;-92
2022/05/29 12:01:27;;;;;;;56.10;51.80;;;;;;;24.87;100.00;100415.56;5044494;28;20041;-92
2022/05/29 12:04:03;;;;;;;58.22;53.22;;;;;;;25.00;100.00;100411.19;5048543;28;20054;-92
2022/05/29 12:06:35;;;;;;;61.65;56.10;;;;;;;24.74;100.00;100406.38;5046698;28;20046;-92
2022/05/29 12:09:11;;;;;;;61.67;56.33;;;;;;;24.47;100.00;100414.63;5039788;28;20060;-91
2022/05/29 12:11:55;;;;;;;62.03;56.33;;;;;;;24.03;100.00;100416.88;5050684;28;20051;-92
2022/05/29 12:14:45;;;;;;;64.05;58.45;;;;;;;24.14;100.00;100417.47;5044903;28;20053;-93
2022/05/29 12:17:25;;;;;;;;;;;;;;;23.81;100.00;100401.31;5041902;28;20980;-92
2022/05/29 12:20:05;;;;;;;63.42;57.72;;;;;;;23.40;100.00;100393.94;5041199;28;19925;-94
2022/05/29 12:22:39;;;;;;;60.42;55.17;;;;;;;23.64;100.00;100399.19;5051084;28;20092;-94